createdAt,value
2016-10-29T00:00:22.789Z,6.97
2016-10-29T00:01:08.672Z,6.94
2016-10-29T00:02:08.156Z,6.81
2016-10-29T00:03:07.842Z,6.85
2016-10-29T00:04:07.839Z,6.85
2016-10-29T00:05:07.828Z,6.84
2016-10-29T00:06:07.819Z,6.85
2016-10-29T00:07:07.812Z,6.81
2016-10-29T00:08:07.798Z,6.88
2016-10-29T00:09:07.789Z,6.76
2016-10-29T00:10:07.781Z,6.8
2016-10-29T00:11:08.822Z,6.8
2016-10-29T00:12:07.928Z,6.74
2016-10-29T00:13:07.749Z,6.73
2016-10-29T00:14:07.741Z,6.74
2016-10-29T00:15:08.718Z,6.73
2016-10-29T00:16:07.714Z,6.69
2016-10-29T00:17:07.716Z,6.64
2016-10-29T00:18:07.702Z,6.62
2016-10-29T00:19:07.695Z,6.62
2016-10-29T00:21:09.183Z,6.62
2016-10-29T00:22:09.112Z,6.67
2016-10-29T00:23:09.190Z,6.7
2016-10-29T00:24:08.134Z,6.55
2016-10-29T00:25:07.634Z,6.49
2016-10-29T00:26:07.629Z,6.56
2016-10-29T00:27:07.776Z,6.58
2016-10-29T00:28:07.611Z,6.49
2016-10-29T00:29:07.585Z,6.49
2016-10-29T00:30:07.582Z,6.46
2016-10-29T00:31:07.574Z,6.48
2016-10-29T00:32:07.569Z,6.52
2016-10-29T00:33:07.548Z,6.41
2016-10-29T00:34:07.538Z,6.52
2016-10-29T00:35:07.534Z,6.55
2016-10-29T00:36:07.515Z,6.51
2016-10-29T00:37:07.502Z,6.54
2016-10-29T00:38:07.498Z,6.44
2016-10-29T00:39:07.493Z,6.41
2016-10-29T00:40:07.478Z,6.44
2016-10-29T00:41:07.494Z,6.44
2016-10-29T00:42:07.460Z,6.41
2016-10-29T00:43:07.451Z,6.38
2016-10-29T00:44:07.437Z,6.41
2016-10-29T00:45:07.433Z,6.41
2016-10-29T00:46:07.413Z,6.46
2016-10-29T00:47:07.407Z,6.4
2016-10-29T00:48:07.398Z,6.38
2016-10-29T00:49:07.381Z,6.37
2016-10-29T00:50:07.373Z,6.4
2016-10-29T00:51:07.370Z,6.34
2016-10-29T00:52:07.354Z,6.33
2016-10-29T00:53:07.342Z,6.33
2016-10-29T00:54:07.329Z,6.34
2016-10-29T00:55:07.324Z,6.38
2016-10-29T00:56:07.310Z,6.38
2016-10-29T00:57:07.302Z,6.33
2016-10-29T00:58:07.293Z,6.38
2016-10-29T00:59:07.280Z,6.4
2016-10-29T01:00:07.268Z,6.34
2016-10-29T01:01:07.264Z,6.38
2016-10-29T01:02:07.255Z,6.33
2016-10-29T01:03:07.244Z,6.19
2016-10-29T01:04:07.235Z,6.27
2016-10-29T01:05:22.131Z,6.19
2016-10-29T01:06:07.560Z,6.22
2016-10-29T01:07:07.201Z,6.19
2016-10-29T01:08:07.194Z,6.18
2016-10-29T01:09:07.634Z,6.15
2016-10-29T01:10:08.280Z,6.17
2016-10-29T01:11:07.154Z,6.17
2016-10-29T01:12:07.151Z,6.11
2016-10-29T01:13:07.134Z,6.17
2016-10-29T01:14:07.629Z,6.09
2016-10-29T01:15:07.764Z,6.09
2016-10-29T01:16:07.314Z,6.14
2016-10-29T01:17:22.010Z,6
2016-10-29T01:18:07.341Z,6.08
2016-10-29T01:19:07.073Z,6.04
2016-10-29T01:20:07.071Z,6.09
2016-10-29T01:21:07.057Z,6.01
2016-10-29T01:22:07.047Z,6.09
2016-10-29T01:23:07.037Z,6.11
2016-10-29T01:24:07.024Z,6.03
2016-10-29T01:25:07.010Z,5.97
2016-10-29T01:26:07.006Z,6.03
2016-10-29T01:27:06.997Z,5.96
2016-10-29T01:28:06.985Z,5.99
2016-10-29T01:29:06.976Z,5.96
2016-10-29T01:30:07.554Z,5.97
2016-10-29T01:31:09.634Z,5.94
2016-10-29T01:32:06.945Z,5.94
2016-10-29T01:33:06.939Z,5.91
2016-10-29T01:34:06.923Z,5.93
2016-10-29T01:35:07.063Z,5.93
2016-10-29T01:36:07.254Z,5.9
2016-10-29T01:37:06.889Z,5.96
2016-10-29T01:38:07.173Z,5.85
2016-10-29T01:39:08.425Z,5.93
2016-10-29T01:40:07.390Z,5.9
2016-10-29T01:41:08.357Z,5.97
2016-10-29T01:42:06.835Z,5.86
2016-10-29T01:43:06.822Z,5.9
2016-10-29T01:44:07.207Z,6
2016-10-29T01:45:06.807Z,5.97
2016-10-29T01:46:06.795Z,5.94
2016-10-29T01:47:06.784Z,5.97
2016-10-29T01:48:06.776Z,5.94
2016-10-29T01:49:06.764Z,5.91
2016-10-29T01:50:06.749Z,5.9
2016-10-29T01:51:06.738Z,5.9
2016-10-29T01:52:06.725Z,5.85
2016-10-29T01:53:06.719Z,5.91
2016-10-29T01:54:06.714Z,5.91
2016-10-29T01:55:06.697Z,5.81
2016-10-29T01:56:06.690Z,5.83
2016-10-29T01:57:06.681Z,5.85
2016-10-29T01:58:06.670Z,5.89
2016-10-29T01:59:06.656Z,5.85
2016-10-29T02:00:06.645Z,5.9
2016-10-29T02:01:06.632Z,5.85
2016-10-29T02:02:06.619Z,5.89
2016-10-29T02:03:06.618Z,5.81
2016-10-29T02:04:06.596Z,5.86
2016-10-29T02:05:06.584Z,5.96
2016-10-29T02:06:06.575Z,5.83
2016-10-29T02:07:06.569Z,5.9
2016-10-29T02:08:06.563Z,5.89
2016-10-29T02:09:06.549Z,5.89
2016-10-29T02:10:06.539Z,5.89
2016-10-29T02:11:06.535Z,5.81
2016-10-29T02:12:06.518Z,5.89
2016-10-29T02:13:06.506Z,5.86
2016-10-29T02:14:06.490Z,5.91
2016-10-29T02:15:06.486Z,5.89
2016-10-29T02:16:06.468Z,5.89
2016-10-29T02:17:06.468Z,5.83
2016-10-29T02:18:06.454Z,5.72
2016-10-29T02:19:06.437Z,5.72
2016-10-29T02:20:06.429Z,5.68
2016-10-29T02:21:06.445Z,5.71
2016-10-29T02:22:06.410Z,5.68
2016-10-29T02:23:08.707Z,5.64
2016-10-29T02:24:06.938Z,5.65
2016-10-29T02:25:06.372Z,5.76
2016-10-29T02:26:06.672Z,5.79
2016-10-29T02:27:06.390Z,5.63
2016-10-29T02:28:06.345Z,5.72
2016-10-29T02:29:06.330Z,5.68
2016-10-29T02:30:06.326Z,5.65
2016-10-29T02:31:06.311Z,5.72
2016-10-29T02:32:06.298Z,5.72
2016-10-29T02:33:06.571Z,5.68
2016-10-29T02:34:06.681Z,5.71
2016-10-29T02:35:21.479Z,5.74
2016-10-29T02:36:06.957Z,5.72
2016-10-29T02:37:07.247Z,5.74
2016-10-29T02:38:06.240Z,5.67
2016-10-29T02:39:06.326Z,5.71
2016-10-29T02:40:06.216Z,5.71
2016-10-29T02:41:06.208Z,5.68
2016-10-29T02:42:06.191Z,5.65
2016-10-29T02:43:06.182Z,5.65
2016-10-29T02:44:06.174Z,5.64
2016-10-29T02:45:06.165Z,5.64
2016-10-29T02:46:06.158Z,5.58
2016-10-29T02:47:06.140Z,5.58
2016-10-29T02:49:07.917Z,5.58
2016-10-29T02:50:06.105Z,5.53
2016-10-29T02:51:07.148Z,5.71
2016-10-29T02:52:07.075Z,5.67
2016-10-29T02:53:06.147Z,5.67
2016-10-29T02:54:06.063Z,5.65
2016-10-29T02:55:06.058Z,5.71
2016-10-29T02:56:06.046Z,5.74
2016-10-29T02:57:07.496Z,5.74
2016-10-29T02:58:07.535Z,5.71
2016-10-29T02:59:07.418Z,5.71
2016-10-29T03:00:06.001Z,5.71
2016-10-29T03:01:06.231Z,5.71
2016-10-29T03:02:05.976Z,5.76
2016-10-29T03:03:05.967Z,5.86
2016-10-29T03:04:06.246Z,5.83
2016-10-29T03:05:05.945Z,5.81
2016-10-29T03:06:05.931Z,5.83
2016-10-29T03:07:05.920Z,5.79
2016-10-29T03:08:06.209Z,5.78
2016-10-29T03:09:05.903Z,5.89
2016-10-29T03:10:05.884Z,5.86
2016-10-29T03:11:06.190Z,5.81
2016-10-29T03:12:06.170Z,5.94
2016-10-29T03:13:05.854Z,5.85
2016-10-29T03:14:06.156Z,5.89
2016-10-29T03:15:05.832Z,5.9
2016-10-29T03:16:05.825Z,5.97
2016-10-29T03:17:05.814Z,5.93
2016-10-29T03:18:05.802Z,5.93
2016-10-29T03:19:05.796Z,5.93
2016-10-29T03:20:06.092Z,5.99
2016-10-29T03:21:06.074Z,6.06
2016-10-29T03:22:06.070Z,6.01
2016-10-29T03:23:05.753Z,6.04
2016-10-29T03:24:05.738Z,6.09
2016-10-29T03:25:05.727Z,6.15
2016-10-29T03:26:05.723Z,6.15
2016-10-29T03:27:05.707Z,6.25
2016-10-29T03:28:05.696Z,6.27
2016-10-29T03:29:05.685Z,6.22
2016-10-29T03:30:05.677Z,6.33
2016-10-29T03:31:05.658Z,6.44
2016-10-29T03:32:05.662Z,6.44
2016-10-29T03:33:05.649Z,6.51
2016-10-29T03:34:05.631Z,6.56
2016-10-29T03:35:05.621Z,6.52
2016-10-29T03:36:05.611Z,6.49
2016-10-29T03:37:05.602Z,6.55
2016-10-29T03:38:05.586Z,6.54
2016-10-29T03:39:05.618Z,6.51
2016-10-29T03:40:05.570Z,6.44
2016-10-29T03:41:05.562Z,6.51
2016-10-29T03:42:05.600Z,6.51
2016-10-29T03:43:07.343Z,6.46
2016-10-29T03:44:06.124Z,6.41
2016-10-29T03:45:06.470Z,6.37
2016-10-29T03:46:06.612Z,6.41
2016-10-29T03:47:05.537Z,6.33
2016-10-29T03:48:05.490Z,6.3
2016-10-29T03:49:05.473Z,6.33
2016-10-29T03:50:05.514Z,6.37
2016-10-29T03:51:06.411Z,6.3
2016-10-29T03:52:05.450Z,6.27
2016-10-29T03:53:07.042Z,6.28
2016-10-29T03:54:05.421Z,6.18
2016-10-29T03:55:05.562Z,6.28
2016-10-29T03:56:05.411Z,6.15
2016-10-29T03:57:05.401Z,6.14
2016-10-29T03:58:05.385Z,6.14
2016-10-29T03:59:05.372Z,6.14
2016-10-29T04:00:05.368Z,6.09
2016-10-29T04:01:05.650Z,6.09
2016-10-29T04:02:05.340Z,6.09
2016-10-29T04:03:05.341Z,6.06
2016-10-29T04:04:05.319Z,5.97
2016-10-29T04:05:05.316Z,5.94
2016-10-29T04:06:06.820Z,5.93
2016-10-29T04:07:05.715Z,5.91
2016-10-29T04:08:07.996Z,5.93
2016-10-29T04:09:06.728Z,5.85
2016-10-29T04:10:05.271Z,5.86
2016-10-29T04:11:05.255Z,5.9
2016-10-29T04:12:05.235Z,5.86
2016-10-29T04:13:05.229Z,5.83
2016-10-29T04:14:05.220Z,5.82
2016-10-29T04:16:06.710Z,5.72
2016-10-29T04:17:05.939Z,5.71
2016-10-29T04:18:05.312Z,5.72
2016-10-29T04:19:06.630Z,5.61
2016-10-29T04:20:05.148Z,5.71
2016-10-29T04:21:05.142Z,5.67
2016-10-29T04:22:05.132Z,5.58
2016-10-29T04:23:05.121Z,5.67
2016-10-29T04:24:05.109Z,5.54
2016-10-29T04:25:05.108Z,5.56
2016-10-29T04:26:05.086Z,5.61
2016-10-29T04:27:05.080Z,5.58
2016-10-29T04:28:05.063Z,5.57
2016-10-29T04:29:05.058Z,5.54
2016-10-29T04:30:05.047Z,5.56
2016-10-29T04:31:05.039Z,5.57
2016-10-29T04:32:05.029Z,5.58
2016-10-29T04:33:05.022Z,5.42
2016-10-29T04:34:05.004Z,5.49
2016-10-29T04:35:04.990Z,5.49
2016-10-29T04:36:04.984Z,5.54
2016-10-29T04:37:05.270Z,5.58
2016-10-29T04:38:04.957Z,5.49
2016-10-29T04:39:04.940Z,5.43
2016-10-29T04:40:04.931Z,5.43
2016-10-29T04:41:04.919Z,5.4
2016-10-29T04:42:04.962Z,5.45
2016-10-29T04:43:04.902Z,5.42
2016-10-29T04:44:04.889Z,5.42
2016-10-29T04:45:04.872Z,5.43
2016-10-29T04:46:04.878Z,5.35
2016-10-29T04:47:04.861Z,5.45
2016-10-29T04:48:05.145Z,5.38
2016-10-29T04:49:04.840Z,5.43
2016-10-29T04:50:04.864Z,5.39
2016-10-29T04:51:04.814Z,5.39
2016-10-29T04:52:05.097Z,5.4
2016-10-29T04:53:04.796Z,5.36
2016-10-29T04:54:04.786Z,5.45
2016-10-29T04:55:04.767Z,5.43
2016-10-29T04:56:04.762Z,5.46
2016-10-29T04:57:04.747Z,5.48
2016-10-29T04:58:04.746Z,5.42
2016-10-29T04:59:04.728Z,5.53
2016-10-29T05:00:04.967Z,5.45
2016-10-29T05:01:05.253Z,5.51
2016-10-29T05:02:05.093Z,5.51
2016-10-29T05:03:04.678Z,5.53
2016-10-29T05:04:04.720Z,5.54
2016-10-29T05:05:04.808Z,5.54
2016-10-29T05:06:04.645Z,5.43
2016-10-29T05:07:04.882Z,5.45
2016-10-29T05:08:04.627Z,5.49
2016-10-29T05:09:05.770Z,5.43
2016-10-29T05:10:06.160Z,5.46
2016-10-29T05:11:20.003Z,5.58
2016-10-29T05:12:04.884Z,5.58
2016-10-29T05:13:04.572Z,5.56
2016-10-29T05:14:04.573Z,5.63
2016-10-29T05:15:04.551Z,5.76
2016-10-29T05:16:04.536Z,5.79
2016-10-29T05:17:04.522Z,5.81
2016-10-29T05:18:04.513Z,5.79
2016-10-29T05:19:04.509Z,5.79
2016-10-29T05:20:04.495Z,5.94
2016-10-29T05:21:04.486Z,5.9
2016-10-29T05:22:04.471Z,5.97
2016-10-29T05:23:04.461Z,5.91
2016-10-29T05:25:05.468Z,5.86
2016-10-29T05:26:06.623Z,5.79
2016-10-29T05:27:06.298Z,5.85
2016-10-29T05:28:04.941Z,5.89
2016-10-29T05:29:04.403Z,5.85
2016-10-29T05:30:04.387Z,5.83
2016-10-29T05:31:04.681Z,5.82
2016-10-29T05:32:04.366Z,5.74
2016-10-29T05:33:04.427Z,5.81
2016-10-29T05:35:04.641Z,5.72
2016-10-29T05:36:04.925Z,5.67
2016-10-29T05:37:04.307Z,5.72
2016-10-29T05:38:04.295Z,5.71
2016-10-29T05:39:04.288Z,5.75
2016-10-29T05:40:04.648Z,5.82
2016-10-29T05:41:04.382Z,5.75
2016-10-29T05:42:04.258Z,5.71
2016-10-29T05:43:04.248Z,5.76
2016-10-29T05:44:04.239Z,5.75
2016-10-29T05:45:04.230Z,5.76
2016-10-29T05:46:04.223Z,5.71
2016-10-29T05:47:04.195Z,5.81
2016-10-29T05:48:04.188Z,5.74
2016-10-29T05:49:04.179Z,5.75
2016-10-29T05:50:04.172Z,5.71
2016-10-29T05:51:04.157Z,5.76
2016-10-29T05:52:04.143Z,5.75
2016-10-29T05:53:04.140Z,5.78
2016-10-29T05:54:04.120Z,5.79
2016-10-29T05:55:04.119Z,5.74
2016-10-29T05:56:04.113Z,5.81
2016-10-29T05:57:04.102Z,5.76
2016-10-29T05:58:04.078Z,5.83
2016-10-29T05:59:04.075Z,5.72
2016-10-29T06:00:04.062Z,5.74
2016-10-29T06:01:04.050Z,5.71
2016-10-29T06:02:04.043Z,5.81
2016-10-29T06:03:04.030Z,5.75
2016-10-29T06:04:04.021Z,5.72
2016-10-29T06:05:04.007Z,5.72
2016-10-29T06:06:03.998Z,5.75
2016-10-29T06:07:03.988Z,5.79
2016-10-29T06:08:03.978Z,5.86
2016-10-29T06:09:03.962Z,5.89
2016-10-29T06:10:03.953Z,5.86
2016-10-29T06:11:03.943Z,5.85
2016-10-29T06:12:03.933Z,5.83
2016-10-29T06:13:03.917Z,5.89
2016-10-29T06:14:03.919Z,5.94
2016-10-29T06:15:03.900Z,5.91
2016-10-29T06:16:03.892Z,5.94
2016-10-29T06:17:03.877Z,5.99
2016-10-29T06:18:04.522Z,6.01
2016-10-29T06:19:04.565Z,6.01
2016-10-29T06:20:04.247Z,6.09
2016-10-29T06:21:04.000Z,6.06
2016-10-29T06:22:03.838Z,6.09
2016-10-29T06:23:03.862Z,6.01
2016-10-29T06:24:03.856Z,6.19
2016-10-29T06:25:03.796Z,6.19
2016-10-29T06:26:03.784Z,6.17
2016-10-29T06:27:18.716Z,6.27
2016-10-29T06:28:04.311Z,6.37
2016-10-29T06:29:04.115Z,6.36
2016-10-29T06:30:03.745Z,6.37
2016-10-29T06:31:04.734Z,6.44
2016-10-29T06:32:03.822Z,6.41
2016-10-29T06:33:04.513Z,6.49
2016-10-29T06:34:03.700Z,6.55
2016-10-29T06:35:03.690Z,6.59
2016-10-29T06:36:03.680Z,6.64
2016-10-29T06:37:03.670Z,6.73
2016-10-29T06:38:03.657Z,6.76
2016-10-29T06:39:03.653Z,6.89
2016-10-29T06:40:03.636Z,7.02
2016-10-29T06:41:03.635Z,7.07
2016-10-29T06:42:03.617Z,7.1
2016-10-29T06:44:05.337Z,7.13
2016-10-29T06:45:05.978Z,7.25
2016-10-29T06:46:03.579Z,7.25
2016-10-29T06:47:03.569Z,7.32
2016-10-29T06:48:03.991Z,7.42
2016-10-29T06:49:03.555Z,7.43
2016-10-29T06:50:03.543Z,7.58
2016-10-29T06:51:03.530Z,7.52
2016-10-29T06:52:03.903Z,7.53
2016-10-29T06:53:05.195Z,7.72
2016-10-29T06:54:04.440Z,7.83
2016-10-29T06:55:04.476Z,8.04
2016-10-29T06:56:04.323Z,8.15
2016-10-29T06:57:03.930Z,8.15
2016-10-29T06:58:03.477Z,8.33
2016-10-29T06:59:03.459Z,8.48
2016-10-29T07:00:03.453Z,8.44
2016-10-29T07:01:03.448Z,8.56
2016-10-29T07:02:03.442Z,8.71
2016-10-29T07:03:03.435Z,8.73
2016-10-29T07:04:03.424Z,8.79
2016-10-29T07:05:03.419Z,8.87
2016-10-29T07:06:03.404Z,8.89
2016-10-29T07:07:03.400Z,8.96
2016-10-29T07:08:03.398Z,9.01
2016-10-29T07:09:03.393Z,9.05
2016-10-29T07:10:03.366Z,9.15
2016-10-29T07:11:03.367Z,9.18
2016-10-29T07:12:03.349Z,9.29
2016-10-29T07:13:03.649Z,9.32
2016-10-29T07:14:03.338Z,9.36
2016-10-29T07:15:03.328Z,9.38
2016-10-29T07:16:03.324Z,9.48
2016-10-29T07:17:03.309Z,9.5
2016-10-29T07:18:03.309Z,9.46
2016-10-29T07:19:03.296Z,9.56
2016-10-29T07:20:03.292Z,9.66
2016-10-29T07:21:03.281Z,9.68
2016-10-29T07:22:03.270Z,9.69
2016-10-29T07:23:03.269Z,9.78
2016-10-29T07:24:03.250Z,9.84
2016-10-29T07:25:03.245Z,9.87
2016-10-29T07:26:03.243Z,9.97
2016-10-29T07:27:03.230Z,9.99
2016-10-29T07:28:03.221Z,9.97
2016-10-29T07:29:03.256Z,10.02
2016-10-29T07:30:03.208Z,10.08
2016-10-29T07:31:03.199Z,10.09
2016-10-29T07:32:03.223Z,10.22
2016-10-29T07:33:03.191Z,10.23
2016-10-29T07:34:03.182Z,10.3
2016-10-29T07:35:03.170Z,10.33
2016-10-29T07:36:03.164Z,10.36
2016-10-29T07:37:03.603Z,10.41
2016-10-29T07:38:03.496Z,10.48
2016-10-29T07:39:18.050Z,10.44
2016-10-29T07:40:04.437Z,10.56
2016-10-29T07:41:03.423Z,10.52
2016-10-29T07:42:03.155Z,10.67
2016-10-29T07:43:03.118Z,10.66
2016-10-29T07:44:03.106Z,10.71
2016-10-29T07:45:03.096Z,10.84
2016-10-29T07:46:03.486Z,10.86
2016-10-29T07:47:03.135Z,11.03
2016-10-29T07:48:03.130Z,10.91
2016-10-29T07:49:03.870Z,11.09
2016-10-29T07:50:03.602Z,11.04
2016-10-29T07:51:03.055Z,11.27
2016-10-29T07:52:03.347Z,11.19
2016-10-29T07:53:03.041Z,11.22
2016-10-29T07:54:03.033Z,11.25
2016-10-29T07:55:03.022Z,11.32
2016-10-29T07:56:03.017Z,11.35
2016-10-29T07:57:03.044Z,11.39
2016-10-29T07:58:03.009Z,11.43
2016-10-29T07:59:02.998Z,11.54
2016-10-29T08:00:02.987Z,11.58
2016-10-29T08:01:04.079Z,11.47
2016-10-29T08:02:03.817Z,11.67
2016-10-29T08:03:05.535Z,11.67
2016-10-29T08:04:03.707Z,11.78
2016-10-29T08:05:03.898Z,11.8
2016-10-29T08:06:03.300Z,11.85
2016-10-29T08:07:02.943Z,11.85
2016-10-29T08:08:02.936Z,11.8
2016-10-29T08:09:02.928Z,11.95
2016-10-29T08:10:03.569Z,11.94
2016-10-29T08:11:04.018Z,12.04
2016-10-29T08:12:04.216Z,12.05
2016-10-29T08:13:02.980Z,12.07
2016-10-29T08:14:03.718Z,12.12
2016-10-29T08:15:03.580Z,12.24
2016-10-29T08:16:03.139Z,12.27
2016-10-29T08:17:02.877Z,12.34
2016-10-29T08:18:02.882Z,12.31
2016-10-29T08:19:02.864Z,12.31
2016-10-29T08:20:02.862Z,12.45
2016-10-29T08:21:02.853Z,12.46
2016-10-29T08:22:02.850Z,12.47
2016-10-29T08:23:02.843Z,12.5
2016-10-29T08:24:03.135Z,12.52
2016-10-29T08:25:02.841Z,12.6
2016-10-29T08:26:02.820Z,12.57
2016-10-29T08:27:02.827Z,12.54
2016-10-29T08:28:02.806Z,12.65
2016-10-29T08:29:02.811Z,12.71
2016-10-29T08:30:02.801Z,12.67
2016-10-29T08:31:02.792Z,12.72
2016-10-29T08:32:02.820Z,12.77
2016-10-29T08:33:02.785Z,12.78
2016-10-29T08:34:02.778Z,13
2016-10-29T08:35:02.823Z,13
2016-10-29T08:36:02.763Z,13
2016-10-29T08:37:02.758Z,12.97
2016-10-29T08:38:02.760Z,12.96
2016-10-29T08:39:02.750Z,13.01
2016-10-29T08:40:02.746Z,13.01
2016-10-29T08:41:02.768Z,12.97
2016-10-29T08:42:02.731Z,13.04
2016-10-29T08:43:02.726Z,13.07
2016-10-29T08:44:02.721Z,13.07
2016-10-29T08:45:02.712Z,13.12
2016-10-29T08:46:02.716Z,13.14
2016-10-29T08:47:02.704Z,13.19
2016-10-29T08:48:02.697Z,13.22
2016-10-29T08:49:02.704Z,13.14
2016-10-29T08:50:02.692Z,13.25
2016-10-29T08:51:02.687Z,13.2
2016-10-29T08:52:02.677Z,13.12
2016-10-29T08:53:02.677Z,13.17
2016-10-29T08:54:02.668Z,13.11
2016-10-29T08:55:02.959Z,13.17
2016-10-29T08:56:02.910Z,12.95
2016-10-29T08:57:02.652Z,12.97
2016-10-29T08:58:03.044Z,12.97
2016-10-29T08:59:03.237Z,12.97
2016-10-29T09:00:03.004Z,13.03
2016-10-29T09:01:02.637Z,13.01
2016-10-29T09:02:02.634Z,12.95
2016-10-29T09:03:02.623Z,13.01
2016-10-29T09:04:03.469Z,12.97
2016-10-29T09:05:02.657Z,13.01
2016-10-29T09:06:03.452Z,13
2016-10-29T09:08:03.932Z,13.01
2016-10-29T09:09:02.594Z,13.04
2016-10-29T09:10:02.877Z,13.1
2016-10-29T09:11:02.583Z,13.12
2016-10-29T09:12:02.581Z,13.2
2016-10-29T09:13:02.578Z,13.25
2016-10-29T09:14:02.566Z,13.23
2016-10-29T09:15:02.563Z,13.29
2016-10-29T09:16:02.560Z,13.33
2016-10-29T09:17:02.555Z,13.46
2016-10-29T09:18:02.550Z,13.39
2016-10-29T09:19:03.554Z,13.42
2016-10-29T09:20:04.049Z,13.39
2016-10-29T09:21:05.016Z,13.41
2016-10-29T09:22:04.152Z,13.54
2016-10-29T09:23:02.563Z,13.52
2016-10-29T09:24:03.290Z,13.57
2016-10-29T09:25:03.169Z,13.66
2016-10-29T09:26:02.510Z,13.69
2016-10-29T09:27:02.503Z,13.73
2016-10-29T09:29:06.111Z,13.87
2016-10-29T09:30:03.733Z,13.82
2016-10-29T09:31:03.591Z,13.84
2016-10-29T09:32:02.478Z,13.88
2016-10-29T09:33:03.697Z,13.89
2016-10-29T09:34:02.474Z,13.91
2016-10-29T09:35:02.464Z,13.97
2016-10-29T09:36:02.458Z,13.87
2016-10-29T09:37:02.459Z,14
2016-10-29T09:38:02.448Z,14.03
2016-10-29T09:39:02.439Z,14.03
2016-10-29T09:40:02.441Z,14.06
2016-10-29T09:41:02.437Z,14.15
2016-10-29T09:42:02.431Z,14.2
2016-10-29T09:43:02.430Z,14.18
2016-10-29T09:44:02.428Z,14.22
2016-10-29T09:45:02.716Z,14.28
2016-10-29T09:46:02.421Z,14.29
2016-10-29T09:47:02.409Z,14.21
2016-10-29T09:48:02.406Z,14.17
2016-10-29T09:49:02.397Z,14.18
2016-10-29T09:50:02.395Z,14.21
2016-10-29T09:51:02.437Z,14.22
2016-10-29T09:52:02.689Z,14.28
2016-10-29T09:53:02.385Z,14.28
2016-10-29T09:54:02.376Z,14.22
2016-10-29T09:55:02.377Z,14.33
2016-10-29T09:56:02.374Z,14.33
2016-10-29T09:57:02.368Z,14.39
2016-10-29T09:58:02.358Z,14.33
2016-10-29T09:59:02.360Z,14.42
2016-10-29T10:00:02.355Z,14.33
2016-10-29T10:01:02.350Z,14.36
2016-10-29T10:02:02.342Z,14.35
2016-10-29T10:03:02.345Z,14.25
2016-10-29T10:04:02.338Z,14.24
2016-10-29T10:05:02.501Z,14.4
2016-10-29T10:06:02.331Z,14.37
2016-10-29T10:07:02.320Z,14.32
2016-10-29T10:08:02.321Z,14.37
2016-10-29T10:09:02.317Z,14.37
2016-10-29T10:10:02.305Z,14.36
2016-10-29T10:11:02.307Z,14.27
2016-10-29T10:12:02.340Z,14.33
2016-10-29T10:13:18.114Z,14.35
2016-10-29T10:14:02.645Z,14.24
2016-10-29T10:15:02.738Z,14.39
2016-10-29T10:16:02.338Z,14.33
2016-10-29T10:17:02.831Z,14.35
2016-10-29T10:18:02.283Z,14.37
2016-10-29T10:19:02.272Z,14.39
2016-10-29T10:20:02.266Z,14.47
2016-10-29T10:21:02.267Z,14.5
2016-10-29T10:22:02.458Z,14.55
2016-10-29T10:23:02.306Z,14.43
2016-10-29T10:24:02.303Z,14.52
2016-10-29T10:25:02.283Z,14.4
2016-10-29T10:26:02.248Z,14.27
2016-10-29T10:27:02.286Z,14.27
2016-10-29T10:28:02.546Z,14.43
2016-10-29T10:29:02.233Z,14.39
2016-10-29T10:30:02.225Z,14.5
2016-10-29T10:31:02.228Z,14.42
2016-10-29T10:32:02.223Z,14.47
2016-10-29T10:33:02.211Z,14.39
2016-10-29T10:34:02.210Z,14.25
2016-10-29T10:35:02.214Z,14.28
2016-10-29T10:36:02.208Z,14.28
2016-10-29T10:37:02.198Z,14.35
2016-10-29T10:38:03.149Z,14.24
2016-10-29T10:39:04.998Z,14.2
2016-10-29T10:40:02.191Z,14.15
2016-10-29T10:41:02.179Z,14.17
2016-10-29T10:42:02.996Z,14.17
2016-10-29T10:43:02.179Z,14.2
2016-10-29T10:44:02.167Z,14.27
2016-10-29T10:45:02.164Z,14.28
2016-10-29T10:46:02.157Z,14.28
2016-10-29T10:47:04.970Z,14.42
2016-10-29T10:48:03.706Z,14.43
2016-10-29T10:49:04.376Z,14.45
2016-10-29T10:50:02.138Z,14.29
2016-10-29T10:51:02.444Z,14.25
2016-10-29T10:52:02.436Z,14.28
2016-10-29T10:53:02.136Z,14.15
2016-10-29T10:54:02.128Z,14.2
2016-10-29T10:55:02.122Z,14.18
2016-10-29T10:56:02.114Z,14.18
2016-10-29T10:57:02.113Z,14.14
2016-10-29T10:58:02.149Z,14.17
2016-10-29T10:59:02.113Z,14.18
2016-10-29T11:00:02.102Z,14.2
2016-10-29T11:01:02.095Z,14.12
2016-10-29T11:02:02.099Z,14.17
2016-10-29T11:03:02.092Z,14.15
2016-10-29T11:04:02.085Z,14.18
2016-10-29T11:05:02.081Z,14.18
2016-10-29T11:06:02.090Z,14.18
2016-10-29T11:07:02.077Z,14.22
2016-10-29T11:08:02.062Z,14.32
2016-10-29T11:09:02.060Z,14.27
2016-10-29T11:10:02.055Z,14.28
2016-10-29T11:11:02.059Z,14.2
2016-10-29T11:12:02.043Z,14.35
2016-10-29T11:13:02.044Z,14.27
2016-10-29T11:14:02.042Z,14.42
2016-10-29T11:15:02.037Z,14.43
2016-10-29T11:16:02.027Z,14.5
2016-10-29T11:17:02.031Z,14.52
2016-10-29T11:18:02.032Z,14.58
2016-10-29T11:19:02.022Z,14.6
2016-10-29T11:20:02.011Z,14.54
2016-10-29T11:21:02.009Z,14.6
2016-10-29T11:22:02.010Z,14.54
2016-10-29T11:23:02.004Z,14.51
2016-10-29T11:24:01.994Z,14.42
2016-10-29T11:25:02.294Z,14.32
2016-10-29T11:26:02.025Z,14.35
2016-10-29T11:27:01.986Z,14.28
2016-10-29T11:28:01.983Z,14.35
2016-10-29T11:29:01.980Z,14.32
2016-10-29T11:30:01.972Z,14.32
2016-10-29T11:31:02.920Z,14.27
2016-10-29T11:32:02.312Z,14.21
2016-10-29T11:33:02.307Z,14.17
2016-10-29T11:34:02.799Z,14.06
2016-10-29T11:35:01.950Z,14.02
2016-10-29T11:36:02.296Z,13.87
2016-10-29T11:37:01.937Z,14
2016-10-29T11:38:01.933Z,14.04
2016-10-29T11:39:01.967Z,14.1
2016-10-29T11:40:01.926Z,14.07
2016-10-29T11:41:03.024Z,14.04
2016-10-29T11:42:02.362Z,14.02
2016-10-29T11:43:01.908Z,14.03
2016-10-29T11:44:01.909Z,14.04
2016-10-29T11:45:01.909Z,13.96
2016-10-29T11:46:01.906Z,14
2016-10-29T11:47:02.406Z,14.06
2016-10-29T11:48:01.885Z,14.03
2016-10-29T11:49:01.880Z,14.09
2016-10-29T11:50:01.887Z,14.09
2016-10-29T11:51:01.869Z,14.1
2016-10-29T11:52:02.197Z,14.14
2016-10-29T11:53:01.869Z,14.14
2016-10-29T11:54:01.870Z,14.21
2016-10-29T11:55:01.857Z,14.21
2016-10-29T11:57:04.445Z,14.04
2016-10-29T11:58:02.315Z,14.04
2016-10-29T11:59:03.328Z,13.97
2016-10-29T12:00:03.082Z,13.96
2016-10-29T12:01:02.045Z,14.06
2016-10-29T12:02:01.826Z,14.07
2016-10-29T12:03:01.825Z,14.12
2016-10-29T12:04:01.815Z,14.1
2016-10-29T12:05:03.100Z,14.04
2016-10-29T12:06:02.804Z,13.99
2016-10-29T12:07:04.560Z,14
2016-10-29T12:08:02.815Z,14.06
2016-10-29T12:09:03.090Z,14.14
2016-10-29T12:10:02.476Z,14.04
2016-10-29T12:11:01.781Z,14.03
2016-10-29T12:12:01.778Z,14.07
2016-10-29T12:13:01.775Z,14.04
2016-10-29T12:14:01.767Z,13.97
2016-10-29T12:15:01.771Z,13.95
2016-10-29T12:16:01.758Z,13.82
2016-10-29T12:17:01.758Z,13.55
2016-10-29T12:18:01.758Z,13.59
2016-10-29T12:19:02.500Z,13.38
2016-10-29T12:20:01.745Z,13.36
2016-10-29T12:21:01.738Z,13.19
2016-10-29T12:22:01.735Z,13.23
2016-10-29T12:23:01.726Z,13.14
2016-10-29T12:24:01.722Z,12.97
2016-10-29T12:25:01.724Z,13.11
2016-10-29T12:26:01.709Z,13.11
2016-10-29T12:27:01.713Z,13.08
2016-10-29T12:28:02.016Z,13.17
2016-10-29T12:29:01.694Z,13.22
2016-10-29T12:30:01.997Z,13.2
2016-10-29T12:31:01.719Z,13.26
2016-10-29T12:32:01.688Z,13.15
2016-10-29T12:33:01.680Z,13.29
2016-10-29T12:34:01.670Z,13.36
2016-10-29T12:35:01.669Z,13.38
2016-10-29T12:36:01.667Z,13.44
2016-10-29T12:37:01.657Z,13.36
2016-10-29T12:38:01.655Z,13.44
2016-10-29T12:39:01.647Z,13.57
2016-10-29T12:40:01.648Z,13.62
2016-10-29T12:41:01.636Z,13.67
2016-10-29T12:42:01.636Z,13.69
2016-10-29T12:43:01.634Z,13.75
2016-10-29T12:44:01.627Z,13.85
2016-10-29T12:45:01.613Z,13.87
2016-10-29T12:46:01.612Z,14.07
2016-10-29T12:47:01.608Z,13.97
2016-10-29T12:48:01.602Z,14.12
2016-10-29T12:49:01.604Z,14.07
2016-10-29T12:50:02.043Z,14.14
2016-10-29T12:51:16.507Z,14.1
2016-10-29T12:52:16.941Z,14.06
2016-10-29T12:53:01.580Z,14.14
2016-10-29T12:54:01.576Z,14.14
2016-10-29T12:55:01.571Z,14.04
2016-10-29T12:56:01.872Z,13.87
2016-10-29T12:57:01.560Z,13.89
2016-10-29T12:58:01.549Z,13.78
2016-10-29T12:59:16.469Z,13.73
2016-10-29T13:00:01.646Z,13.66
2016-10-29T13:01:16.547Z,13.64
2016-10-29T13:02:01.990Z,13.63
2016-10-29T13:04:01.672Z,13.62
2016-10-29T13:05:01.519Z,13.66
2016-10-29T13:06:01.515Z,13.64
2016-10-29T13:07:01.506Z,13.66
2016-10-29T13:08:01.502Z,13.69
2016-10-29T13:09:01.499Z,13.7
2016-10-29T13:10:01.493Z,13.6
2016-10-29T13:11:01.489Z,13.6
2016-10-29T13:12:01.483Z,13.67
2016-10-29T13:13:01.477Z,13.62
2016-10-29T13:15:03.770Z,13.46
2016-10-29T13:16:02.555Z,13.44
2016-10-29T13:17:01.467Z,13.38
2016-10-29T13:18:02.249Z,13.23
2016-10-29T13:19:02.604Z,13.17
2016-10-29T13:20:02.040Z,13.17